createdAt,value
2023-03-16T00:01:14.881Z,68.36
2023-03-16T00:03:45.102Z,68.39
2023-03-16T00:06:32.613Z,68.35
2023-03-16T00:09:20.155Z,68.29
2023-03-16T00:12:09.068Z,68.46
2023-03-16T00:14:57.363Z,68.42
2023-03-16T00:17:34.906Z,68.52
2023-03-16T00:20:23.198Z,68.55
2023-03-16T00:22:59.948Z,68.64
2023-03-16T00:25:46.362Z,68.64
2023-03-16T00:28:35.308Z,68.60
2023-03-16T00:31:14.790Z,68.64
2023-03-16T00:34:02.910Z,68.67
2023-03-16T00:36:38.487Z,68.79
2023-03-16T00:39:12.100Z,68.87
2023-03-16T00:41:59.557Z,68.81
2023-03-16T00:44:47.301Z,68.76
2023-03-16T00:47:35.659Z,68.96
2023-03-16T00:50:23.276Z,68.78
2023-03-16T00:52:53.900Z,68.92
2023-03-16T00:55:39.873Z,68.97
2023-03-16T00:58:20.187Z,68.95
2023-03-16T01:01:09.250Z,68.96
2023-03-16T01:03:46.632Z,68.98
2023-03-16T01:06:34.566Z,69.09
2023-03-16T01:09:13.425Z,69.16
2023-03-16T01:11:54.677Z,69.28
2023-03-16T01:14:36.000Z,69.21
2023-03-16T01:17:23.653Z,69.41
2023-03-16T01:19:53.582Z,69.39
2023-03-16T01:22:33.782Z,69.45
2023-03-16T01:25:22.007Z,69.64
2023-03-16T01:28:01.806Z,69.75
2023-03-16T01:30:48.059Z,69.82
2023-03-16T01:33:36.784Z,69.68
2023-03-16T01:36:24.218Z,69.92
2023-03-16T01:39:13.289Z,70.11
2023-03-16T01:41:45.363Z,70.23
2023-03-16T01:44:30.632Z,70.42
2023-03-16T01:47:15.028Z,70.43
2023-03-16T01:49:57.866Z,70.42
2023-03-16T01:52:33.464Z,70.42
2023-03-16T01:55:08.094Z,70.72
2023-03-16T01:57:55.998Z,70.66
2023-03-16T02:00:45.853Z,70.54
2023-03-16T02:03:34.624Z,70.75
2023-03-16T02:06:23.476Z,70.79
2023-03-16T02:09:11.797Z,70.74
2023-03-16T02:12:00.165Z,70.85
2023-03-16T02:14:48.400Z,71.08
2023-03-16T02:17:37.592Z,71.04
2023-03-16T02:20:33.930Z,71.28
2023-03-16T02:23:25.247Z,71.30
2023-03-16T02:26:19.698Z,71.33
2023-03-16T02:29:21.751Z,71.38
2023-03-16T02:32:03.051Z,71.54
2023-03-16T02:34:36.455Z,71.71
2023-03-16T02:37:24.227Z,71.73
2023-03-16T02:40:24.434Z,71.81
2023-03-16T02:43:06.706Z,71.89
2023-03-16T02:45:50.141Z,72.14
2023-03-16T02:48:44.023Z,72.16
2023-03-16T02:51:32.503Z,72.12
2023-03-16T02:54:20.130Z,72.25
2023-03-16T02:57:08.171Z,72.35
2023-03-16T02:59:55.610Z,72.52
2023-03-16T03:02:35.948Z,72.55
2023-03-16T03:05:14.617Z,72.77
2023-03-16T03:07:46.865Z,72.74
2023-03-16T03:10:34.460Z,73.21
2023-03-16T03:13:21.893Z,72.96
2023-03-16T03:16:11.493Z,73.09
2023-03-16T03:18:59.104Z,73.26
2023-03-16T03:21:46.633Z,73.31
2023-03-16T03:24:16.049Z,73.49
2023-03-16T03:26:45.160Z,73.45
2023-03-16T03:29:26.463Z,73.57
2023-03-16T03:31:57.049Z,73.89
2023-03-16T03:34:44.585Z,73.88
2023-03-16T03:37:32.044Z,74.00
2023-03-16T03:40:21.112Z,74.16
2023-03-16T03:43:08.404Z,74.00
2023-03-16T03:45:38.207Z,74.07
2023-03-16T03:48:24.440Z,74.41
2023-03-16T03:50:56.449Z,74.24
2023-03-16T03:53:44.084Z,74.49
2023-03-16T03:56:37.513Z,74.36
2023-03-16T03:59:15.490Z,74.42
2023-03-16T04:02:18.300Z,74.93
2023-03-16T04:05:12.346Z,74.64
2023-03-16T04:07:39.955Z,74.78
2023-03-16T04:10:29.479Z,75.00
2023-03-16T04:13:00.963Z,74.71
2023-03-16T04:15:33.132Z,74.99
2023-03-16T04:18:26.734Z,75.26
2023-03-16T04:21:17.736Z,75.35
2023-03-16T04:24:05.282Z,75.28
2023-03-16T04:26:54.374Z,75.25
2023-03-16T04:29:22.507Z,75.45
2023-03-16T04:31:53.930Z,75.32
2023-03-16T04:34:25.060Z,75.38
2023-03-16T04:37:07.241Z,75.60
2023-03-16T04:39:45.930Z,75.43
2023-03-16T04:42:23.234Z,75.59
2023-03-16T04:45:12.655Z,75.66
2023-03-16T04:48:00.169Z,75.75
2023-03-16T04:50:48.630Z,75.57
2023-03-16T04:53:29.692Z,75.83
2023-03-16T04:56:02.257Z,75.69
2023-03-16T04:58:51.036Z,75.82
2023-03-16T05:01:28.948Z,75.74
2023-03-16T05:04:02.683Z,75.89
2023-03-16T05:06:50.181Z,75.82
2023-03-16T05:09:28.164Z,75.77
2023-03-16T05:12:05.768Z,75.84
2023-03-16T05:14:44.147Z,75.87
2023-03-16T05:17:25.460Z,75.64
2023-03-16T05:19:53.235Z,75.04
2023-03-16T05:22:20.743Z,74.82
2023-03-16T05:25:23.677Z,74.59
2023-03-16T05:28:11.178Z,73.87
2023-03-16T05:30:58.767Z,73.46
2023-03-16T05:33:38.279Z,72.92
2023-03-16T05:36:18.696Z,71.89
2023-03-16T05:38:58.386Z,70.99
2023-03-16T05:41:42.488Z,69.09
2023-03-16T05:44:45.384Z,67.10
2023-03-16T05:47:29.741Z,65.11
2023-03-16T05:49:57.346Z,63.70
2023-03-16T05:52:34.112Z,62.54
2023-03-16T05:55:05.649Z,61.38
2023-03-16T05:57:34.074Z,59.48
2023-03-16T06:00:02.019Z,57.81
2023-03-16T06:02:40.064Z,55.62
2023-03-16T06:05:08.819Z,54.65
2023-03-16T06:07:38.295Z,52.74
2023-03-16T06:10:07.739Z,50.99
2023-03-16T06:12:35.655Z,49.48
2023-03-16T06:15:03.404Z,47.80
2023-03-16T06:17:31.142Z,46.92
2023-03-16T06:19:58.412Z,45.98
2023-03-16T06:22:25.830Z,45.24
2023-03-16T06:24:53.186Z,44.06
2023-03-16T06:27:21.505Z,42.70
2023-03-16T06:29:59.807Z,41.51
2023-03-16T06:32:27.245Z,40.56
2023-03-16T06:34:54.770Z,39.31
2023-03-16T06:37:22.714Z,38.47
2023-03-16T06:39:50.465Z,37.19
2023-03-16T06:42:17.618Z,36.36
2023-03-16T06:44:45.343Z,35.06
2023-03-16T06:47:13.617Z,34.74
2023-03-16T06:49:40.979Z,34.06
2023-03-16T06:52:15.927Z,33.64
2023-03-16T06:54:43.648Z,33.27
2023-03-16T06:57:11.806Z,32.05
2023-03-16T06:59:39.075Z,32.07
2023-03-16T07:02:08.351Z,31.14
2023-03-16T07:04:35.716Z,30.49
2023-03-16T07:07:03.242Z,30.04
2023-03-16T07:09:32.120Z,29.85
2023-03-16T07:11:59.321Z,29.04
2023-03-16T07:14:26.524Z,29.34
2023-03-16T07:16:55.116Z,28.55
2023-03-16T07:19:23.326Z,28.39
2023-03-16T07:21:51.808Z,28.33
2023-03-16T07:24:20.201Z,28.13
2023-03-16T07:26:47.659Z,27.71
2023-03-16T07:29:22.116Z,27.86
2023-03-16T07:31:50.548Z,26.93
2023-03-16T07:34:20.186Z,27.00
2023-03-16T07:36:52.885Z,26.76
2023-03-16T07:39:21.659Z,26.28
2023-03-16T07:41:51.595Z,26.31
2023-03-16T07:44:28.029Z,25.57
2023-03-16T07:46:55.611Z,25.66
2023-03-16T07:49:24.458Z,25.99
2023-03-16T07:51:52.898Z,25.63
2023-03-16T07:54:21.706Z,25.96
2023-03-16T07:56:49.948Z,26.08
2023-03-16T07:59:29.221Z,26.29
2023-03-16T08:01:56.555Z,26.00
2023-03-16T08:04:23.953Z,25.75
2023-03-16T08:06:52.642Z,25.57
2023-03-16T08:09:21.404Z,25.50
2023-03-16T08:11:48.573Z,25.89
2023-03-16T08:14:15.976Z,25.01
2023-03-16T08:16:59.636Z,25.32
2023-03-16T08:19:27.654Z,25.20
2023-03-16T08:22:01.518Z,25.33
2023-03-16T08:24:33.420Z,25.20
2023-03-16T08:27:01.737Z,24.92
2023-03-16T08:29:30.454Z,25.26
2023-03-16T08:31:58.652Z,24.97
2023-03-16T08:34:31.946Z,24.98
2023-03-16T08:37:00.361Z,25.14
2023-03-16T08:39:27.699Z,24.62
2023-03-16T08:41:55.383Z,24.97
2023-03-16T08:44:44.518Z,24.88
2023-03-16T08:47:12.277Z,25.01
2023-03-16T08:49:41.483Z,25.17
2023-03-16T08:52:13.107Z,24.96
2023-03-16T08:54:47.142Z,24.97
2023-03-16T08:57:21.764Z,25.07
2023-03-16T08:59:48.958Z,25.11
2023-03-16T09:02:16.867Z,24.97
2023-03-16T09:04:44.608Z,25.06
2023-03-16T09:07:12.936Z,25.27
2023-03-16T09:09:40.247Z,25.48
2023-03-16T09:12:08.644Z,25.19
2023-03-16T09:14:38.724Z,25.03
2023-03-16T09:17:08.326Z,24.62
2023-03-16T09:19:50.631Z,24.93
2023-03-16T09:22:19.789Z,25.04
2023-03-16T09:24:47.219Z,25.29
2023-03-16T09:27:15.616Z,25.27
2023-03-16T09:29:43.231Z,24.61
2023-03-16T09:32:11.931Z,25.25
2023-03-16T09:34:39.408Z,25.40
2023-03-16T09:37:06.734Z,25.29
2023-03-16T09:39:33.917Z,25.20
2023-03-16T09:42:08.470Z,25.69
2023-03-16T09:44:45.376Z,25.80
2023-03-16T09:47:16.704Z,25.67
2023-03-16T09:49:47.983Z,26.19
2023-03-16T09:52:27.253Z,27.16
2023-03-16T09:55:00.868Z,27.94
2023-03-16T09:57:30.922Z,28.67
2023-03-16T10:00:00.073Z,28.93
2023-03-16T10:02:45.791Z,28.87
2023-03-16T10:05:16.357Z,28.68
2023-03-16T10:07:55.038Z,28.76
2023-03-16T10:10:38.442Z,28.92
2023-03-16T10:13:14.411Z,28.51
2023-03-16T10:15:43.415Z,28.37
2023-03-16T10:18:16.697Z,28.21
2023-03-16T10:20:45.510Z,27.48
2023-03-16T10:23:21.542Z,27.49
2023-03-16T10:25:51.041Z,26.98
2023-03-16T10:28:21.367Z,26.43
2023-03-16T10:30:51.072Z,26.57
2023-03-16T10:33:25.881Z,27.05
2023-03-16T10:35:56.939Z,26.92
2023-03-16T10:38:43.093Z,26.97
2023-03-16T10:41:23.096Z,28.51
2023-03-16T10:43:53.394Z,27.96
2023-03-16T10:46:21.136Z,27.72
2023-03-16T10:49:00.272Z,27.94
2023-03-16T10:51:31.038Z,28.36
2023-03-16T10:54:06.349Z,28.11
2023-03-16T10:56:37.173Z,28.44
2023-03-16T10:59:13.448Z,28.30
2023-03-16T11:01:40.772Z,28.50
2023-03-16T11:04:18.111Z,28.78
2023-03-16T11:06:54.626Z,28.99
2023-03-16T11:09:27.872Z,29.11
2023-03-16T11:11:55.589Z,29.25
2023-03-16T11:14:30.103Z,29.72
2023-03-16T11:17:04.444Z,29.98
2023-03-16T11:19:33.113Z,30.05
2023-03-16T11:22:03.688Z,30.13
2023-03-16T11:24:39.896Z,30.74
2023-03-16T11:27:16.419Z,31.19
2023-03-16T11:29:58.876Z,31.78
2023-03-16T11:32:37.738Z,32.39
2023-03-16T11:35:13.639Z,33.13
2023-03-16T11:37:55.681Z,33.58
2023-03-16T11:40:38.566Z,34.12
2023-03-16T11:43:23.172Z,35.07
2023-03-16T11:46:04.373Z,35.94
2023-03-16T11:48:41.623Z,36.87
2023-03-16T11:51:33.550Z,37.77
2023-03-16T11:54:18.625Z,38.68
2023-03-16T11:57:15.438Z,39.70
2023-03-16T12:00:07.030Z,40.34
2023-03-16T12:03:12.784Z,41.15
2023-03-16T12:06:05.704Z,41.67
2023-03-16T12:08:54.969Z,42.23
2023-03-16T12:11:26.614Z,42.34
2023-03-16T12:14:07.987Z,41.65
2023-03-16T12:17:02.770Z,41.94
2023-03-16T12:19:56.068Z,42.41
2023-03-16T12:22:45.393Z,42.84
2023-03-16T12:25:38.172Z,43.03
2023-03-16T12:28:14.330Z,43.16
2023-03-16T12:31:12.417Z,42.89
2023-03-16T12:34:00.040Z,43.16
2023-03-16T12:37:02.210Z,43.28
2023-03-16T12:40:07.988Z,43.46
2023-03-16T12:43:07.250Z,43.77
2023-03-16T12:45:49.646Z,44.04
2023-03-16T12:48:40.171Z,44.35
2023-03-16T12:51:37.111Z,44.21
2023-03-16T12:54:26.772Z,44.31
2023-03-16T12:57:03.776Z,44.61
2023-03-16T12:59:57.346Z,45.02
2023-03-16T13:02:51.805Z,45.09
2023-03-16T13:05:45.903Z,45.13
2023-03-16T13:08:46.270Z,45.26
2023-03-16T13:11:45.942Z,45.34
2023-03-16T13:14:40.895Z,44.88
2023-03-16T13:17:30.797Z,44.29
2023-03-16T13:20:31.114Z,44.09
2023-03-16T13:23:28.109Z,43.49
2023-03-16T13:26:15.391Z,43.37
2023-03-16T13:29:07.736Z,43.26
2023-03-16T13:31:58.268Z,42.26
2023-03-16T13:34:52.148Z,42.04
2023-03-16T13:37:32.413Z,41.94
2023-03-16T13:40:02.063Z,41.48
2023-03-16T13:42:53.227Z,41.33
2023-03-16T13:45:41.769Z,41.55
2023-03-16T13:48:30.013Z,41.93
2023-03-16T13:51:22.949Z,42.22
2023-03-16T13:54:23.590Z,42.31
2023-03-16T13:56:54.377Z,42.47
2023-03-16T13:59:43.622Z,42.48
2023-03-16T14:02:31.130Z,42.33
2023-03-16T14:05:23.160Z,42.49
2023-03-16T14:08:01.144Z,42.17
2023-03-16T14:10:49.689Z,42.42
2023-03-16T14:13:38.350Z,42.52
2023-03-16T14:16:14.501Z,42.78
2023-03-16T14:18:47.861Z,43.26
2023-03-16T14:21:36.134Z,43.38
2023-03-16T14:24:31.040Z,43.59
2023-03-16T14:27:22.500Z,43.72
2023-03-16T14:30:02.771Z,43.75
2023-03-16T14:32:40.170Z,43.80
2023-03-16T14:35:29.942Z,44.09
2023-03-16T14:38:22.769Z,43.73
2023-03-16T14:41:26.485Z,43.57
2023-03-16T14:44:05.000Z,43.43
2023-03-16T14:46:54.408Z,43.78
2023-03-16T14:49:37.608Z,44.31
2023-03-16T14:52:31.881Z,44.70
2023-03-16T14:55:00.090Z,45.27
2023-03-16T14:57:28.843Z,45.33
2023-03-16T14:59:56.766Z,45.24
2023-03-16T15:02:46.252Z,45.09
2023-03-16T15:05:24.659Z,44.86
2023-03-16T15:07:55.653Z,44.79
2023-03-16T15:10:43.845Z,44.71
2023-03-16T15:13:34.660Z,44.67
2023-03-16T15:16:02.152Z,44.45
2023-03-16T15:18:37.828Z,44.22
2023-03-16T15:21:12.365Z,44.40
2023-03-16T15:23:48.103Z,44.41
2023-03-16T15:26:35.318Z,44.29
2023-03-16T15:29:15.949Z,44.24
2023-03-16T15:31:45.430Z,44.06
2023-03-16T15:34:23.691Z,44.24
2023-03-16T15:36:51.993Z,44.08
2023-03-16T15:39:25.359Z,44.31
2023-03-16T15:41:56.260Z,44.26
2023-03-16T15:44:23.480Z,44.60
2023-03-16T15:46:58.440Z,44.84
2023-03-16T15:49:30.201Z,44.98
2023-03-16T15:52:02.504Z,45.32
2023-03-16T15:54:40.474Z,45.65
2023-03-16T15:57:11.204Z,45.71
2023-03-16T15:59:41.956Z,45.74
2023-03-16T16:02:32.545Z,45.93
2023-03-16T16:05:02.732Z,45.83
2023-03-16T16:07:29.954Z,45.87
2023-03-16T16:10:01.533Z,45.87
2023-03-16T16:12:33.734Z,45.72
2023-03-16T16:15:03.460Z,46.06
2023-03-16T16:17:48.063Z,46.71
2023-03-16T16:20:24.691Z,47.47
2023-03-16T16:22:56.681Z,47.82
2023-03-16T16:25:39.367Z,48.32
2023-03-16T16:28:17.052Z,48.30
2023-03-16T16:30:56.242Z,48.67
2023-03-16T16:33:27.785Z,49.10
2023-03-16T16:35:56.403Z,49.97
2023-03-16T16:38:27.294Z,50.93
2023-03-16T16:40:59.148Z,50.77
2023-03-16T16:43:48.042Z,50.34
2023-03-16T16:46:40.338Z,50.21
2023-03-16T16:49:19.592Z,50.36
2023-03-16T16:51:48.997Z,50.54
2023-03-16T16:54:21.339Z,50.89
2023-03-16T16:57:18.988Z,51.08
2023-03-16T17:00:09.270Z,51.13
2023-03-16T17:02:58.787Z,51.36
2023-03-16T17:05:34.524Z,51.79
2023-03-16T17:08:04.655Z,51.84
2023-03-16T17:10:33.328Z,51.79
2023-03-16T17:13:03.174Z,52.44
2023-03-16T17:15:50.676Z,52.32
2023-03-16T17:18:17.830Z,52.51
2023-03-16T17:20:44.987Z,52.71
2023-03-16T17:23:26.659Z,52.61
2023-03-16T17:26:08.125Z,53.02
2023-03-16T17:28:40.601Z,53.10
2023-03-16T17:31:11.983Z,53.50
2023-03-16T17:33:42.301Z,53.55
2023-03-16T17:36:16.804Z,53.94
2023-03-16T17:38:44.358Z,53.76
2023-03-16T17:41:23.153Z,54.03
2023-03-16T17:44:04.331Z,54.15
2023-03-16T17:46:51.997Z,54.35
2023-03-16T17:49:23.543Z,54.45
2023-03-16T17:51:50.529Z,54.56
2023-03-16T17:54:17.602Z,54.52
2023-03-16T17:56:46.118Z,54.88
2023-03-16T17:59:24.904Z,54.81
2023-03-16T18:01:52.707Z,55.00
2023-03-16T18:04:27.554Z,55.22
2023-03-16T18:06:55.514Z,55.30
2023-03-16T18:09:26.106Z,55.32
2023-03-16T18:11:53.938Z,55.62
2023-03-16T18:14:35.111Z,55.73
2023-03-16T18:17:28.368Z,55.88
2023-03-16T18:19:55.878Z,56.04
2023-03-16T18:22:25.334Z,56.10
2023-03-16T18:24:54.868Z,56.19
2023-03-16T18:27:25.768Z,56.25
2023-03-16T18:29:52.867Z,56.50
2023-03-16T18:32:25.150Z,56.40
2023-03-16T18:34:55.910Z,56.53
2023-03-16T18:37:43.668Z,56.47
2023-03-16T18:40:19.890Z,56.38
2023-03-16T18:42:50.564Z,56.32
2023-03-16T18:45:19.036Z,56.27
2023-03-16T18:47:52.567Z,56.37
2023-03-16T18:50:27.510Z,56.38
2023-03-16T18:53:19.082Z,56.54
2023-03-16T18:55:46.584Z,56.53
2023-03-16T18:58:17.898Z,56.77
2023-03-16T19:00:46.125Z,56.61
2023-03-16T19:03:24.527Z,56.80
2023-03-16T19:05:52.441Z,56.86
2023-03-16T19:08:23.236Z,56.87
2023-03-16T19:10:56.583Z,56.89
2023-03-16T19:13:27.789Z,57.09
2023-03-16T19:15:58.822Z,57.13
2023-03-16T19:18:45.387Z,57.48
2023-03-16T19:21:24.078Z,57.41
2023-03-16T19:24:00.559Z,57.57
2023-03-16T19:26:28.414Z,57.71
2023-03-16T19:28:55.756Z,57.71
2023-03-16T19:31:43.579Z,57.90
2023-03-16T19:34:30.876Z,57.84
2023-03-16T19:37:00.268Z,57.93
2023-03-16T19:39:30.402Z,57.79
2023-03-16T19:41:59.618Z,57.95
2023-03-16T19:44:29.620Z,57.73
2023-03-16T19:46:59.156Z,57.89
2023-03-16T19:49:28.102Z,58.04
2023-03-16T19:52:07.482Z,57.70
2023-03-16T19:54:54.900Z,58.00
2023-03-16T19:57:25.463Z,57.92
2023-03-16T19:59:57.711Z,57.71
2023-03-16T20:02:30.569Z,57.72
2023-03-16T20:05:00.386Z,57.89
2023-03-16T20:07:29.687Z,57.58
2023-03-16T20:10:00.473Z,57.64
2023-03-16T20:12:29.085Z,57.65
2023-03-16T20:14:57.557Z,57.65
2023-03-16T20:17:28.570Z,57.81
2023-03-16T20:20:18.346Z,57.83
2023-03-16T20:22:45.884Z,57.94
2023-03-16T20:25:13.221Z,57.99
2023-03-16T20:27:40.541Z,57.84
2023-03-16T20:30:18.031Z,58.12
2023-03-16T20:32:45.442Z,58.03
2023-03-16T20:35:20.427Z,58.12
2023-03-16T20:37:58.726Z,57.93
2023-03-16T20:40:26.500Z,58.22
2023-03-16T20:42:54.397Z,58.24
2023-03-16T20:45:24.624Z,58.22
2023-03-16T20:47:53.119Z,58.32
2023-03-16T20:50:28.110Z,58.27
2023-03-16T20:52:56.570Z,58.42
2023-03-16T20:55:29.199Z,58.32
2023-03-16T20:57:59.670Z,58.46
2023-03-16T21:00:34.785Z,58.50
2023-03-16T21:03:05.112Z,58.68
2023-03-16T21:05:32.325Z,58.79
2023-03-16T21:07:59.303Z,58.95
2023-03-16T21:10:28.611Z,58.80
2023-03-16T21:13:03.881Z,58.92
2023-03-16T21:15:33.487Z,59.05
2023-03-16T21:18:04.126Z,59.03
2023-03-16T21:20:33.335Z,59.12
2023-03-16T21:23:00.640Z,59.27
2023-03-16T21:25:41.667Z,59.24
2023-03-16T21:28:08.980Z,59.40
2023-03-16T21:30:39.491Z,59.42
2023-03-16T21:33:18.110Z,59.50
2023-03-16T21:35:45.186Z,59.63
2023-03-16T21:38:16.753Z,59.59
2023-03-16T21:40:44.022Z,59.88
2023-03-16T21:43:14.917Z,60.05
2023-03-16T21:45:54.167Z,60.16
2023-03-16T21:48:23.441Z,60.28
2023-03-16T21:50:54.692Z,60.53
2023-03-16T21:53:42.385Z,60.67
2023-03-16T21:56:17.094Z,60.72
2023-03-16T21:58:44.494Z,60.95
2023-03-16T22:01:23.750Z,60.92
2023-03-16T22:04:16.141Z,61.44
2023-03-16T22:06:45.082Z,61.55
2023-03-16T22:09:20.203Z,61.76
2023-03-16T22:11:47.529Z,61.90
2023-03-16T22:14:27.293Z,62.06
2023-03-16T22:17:23.536Z,62.35
2023-03-16T22:19:53.165Z,62.64
2023-03-16T22:22:23.140Z,62.84
2023-03-16T22:25:16.738Z,62.95
2023-03-16T22:27:43.973Z,63.22
2023-03-16T22:30:19.020Z,63.29
2023-03-16T22:32:47.884Z,63.37
2023-03-16T22:35:27.851Z,63.37
2023-03-16T22:38:00.267Z,63.61
2023-03-16T22:40:32.416Z,63.57
2023-03-16T22:43:03.181Z,63.66
2023-03-16T22:45:32.316Z,63.76
2023-03-16T22:48:19.364Z,63.95
2023-03-16T22:50:47.646Z,63.89
2023-03-16T22:53:19.267Z,64.04
2023-03-16T22:55:52.378Z,64.12
2023-03-16T22:58:27.150Z,64.06
2023-03-16T23:00:55.141Z,64.21
2023-03-16T23:03:24.163Z,64.36
2023-03-16T23:05:51.980Z,64.35
2023-03-16T23:08:21.566Z,64.67
2023-03-16T23:10:48.812Z,64.73
2023-03-16T23:13:36.952Z,64.88
2023-03-16T23:16:21.504Z,64.91
2023-03-16T23:18:49.934Z,64.85
2023-03-16T23:21:20.731Z,65.06
2023-03-16T23:24:02.588Z,65.15
2023-03-16T23:26:32.005Z,65.16
2023-03-16T23:28:59.843Z,65.16
2023-03-16T23:31:30.821Z,65.28
2023-03-16T23:33:58.333Z,65.24
2023-03-16T23:36:27.688Z,65.50
2023-03-16T23:38:54.689Z,65.63
2023-03-16T23:41:32.183Z,65.56
2023-03-16T23:44:00.795Z,65.80
2023-03-16T23:46:30.362Z,65.92
2023-03-16T23:48:59.487Z,66.13
2023-03-16T23:51:29.413Z,66.24
2023-03-16T23:53:57.531Z,66.31
2023-03-16T23:56:28.195Z,66.44
2023-03-16T23:58:55.926Z,66.53
